VXP232 KLAL-KHVN
Flight info
| Callsign | VXP232 |
|---|---|
| Flight time | N/A |
| Altitude | 37000 |
| Route | NITTS WILON CAMJO Q109 DFENC SAWED Q97 KALDA SARDI1 |
| Aircraft | B738/M-SDE2E3FGHIRWXY/LB1 |
Departure
| Time | 2026-05-06 23:34 |
|---|---|
| Airport | Lakeland Linder International Airport (KLAL) |
Arrival
| Time | N/A |
|---|---|
| Airport | Tweed New Haven Airport (KHVN) |
| Time | Latitude | Longitude | Altitude | Speed | Heading |
|---|---|---|---|---|---|
| 2026-05-06 22:29 | 27.99382 | -82.01469 | 147 ft | 0 kts | 4° |
| 2026-05-06 23:21 | 27.99370 | -82.01470 | 147 ft | 4 kts | 343° |
| 2026-05-06 23:21 | 27.99356 | -82.01453 | 147 ft | 4 kts | 278° |
| 2026-05-06 23:21 | 27.99355 | -82.01436 | 147 ft | 0 kts | 272° |
| 2026-05-06 23:26 | 27.99355 | -82.01439 | 147 ft | 1 kts | 268° |
| 2026-05-06 23:26 | 27.99351 | -82.01453 | 147 ft | 3 kts | 246° |
| 2026-05-06 23:26 | 27.99332 | -82.01473 | 147 ft | 5 kts | 214° |
| 2026-05-06 23:26 | 27.99296 | -82.01488 | 147 ft | 6 kts | 194° |
| 2026-05-06 23:27 | 27.99246 | -82.01502 | 147 ft | 8 kts | 194° |
| 2026-05-06 23:27 | 27.99186 | -82.01520 | 147 ft | 10 kts | 194° |
| 2026-05-06 23:27 | 27.99114 | -82.01530 | 147 ft | 11 kts | 186° |
| 2026-05-06 23:27 | 27.99044 | -82.01566 | 147 ft | 12 kts | 240° |
| 2026-05-06 23:28 | 27.99036 | -82.01664 | 147 ft | 13 kts | 270° |
| 2026-05-06 23:28 | 27.99036 | -82.01772 | 147 ft | 14 kts | 270° |
| 2026-05-06 23:28 | 27.99036 | -82.01888 | 147 ft | 15 kts | 270° |
| 2026-05-06 23:28 | 27.99035 | -82.02013 | 147 ft | 17 kts | 270° |
| 2026-05-06 23:29 | 27.99034 | -82.02146 | 147 ft | 17 kts | 269° |
| 2026-05-06 23:29 | 27.99035 | -82.02278 | 148 ft | 17 kts | 273° |
| 2026-05-06 23:29 | 27.99036 | -82.02407 | 148 ft | 16 kts | 270° |
| 2026-05-06 23:29 | 27.99034 | -82.02534 | 147 ft | 16 kts | 268° |
| 2026-05-06 23:30 | 27.99032 | -82.02655 | 147 ft | 15 kts | 272° |
| 2026-05-06 23:30 | 27.99033 | -82.02773 | 148 ft | 15 kts | 269° |
| 2026-05-06 23:30 | 27.99032 | -82.02883 | 148 ft | 14 kts | 269° |
| 2026-05-06 23:30 | 27.99034 | -82.02997 | 147 ft | 15 kts | 270° |
| 2026-05-06 23:31 | 27.99034 | -82.03121 | 147 ft | 16 kts | 270° |
| 2026-05-06 23:31 | 27.99035 | -82.03254 | 147 ft | 17 kts | 270° |
| 2026-05-06 23:31 | 27.99009 | -82.03339 | 147 ft | 0 kts | 220° |
| 2026-05-06 23:31 | 27.99005 | -82.03343 | 147 ft | 2 kts | 219° |
| 2026-05-06 23:32 | 27.98991 | -82.03353 | 148 ft | 3 kts | 208° |
| 2026-05-06 23:32 | 27.98963 | -82.03359 | 148 ft | 5 kts | 186° |
| 2026-05-06 23:32 | 27.98928 | -82.03343 | 148 ft | 7 kts | 113° |
| 2026-05-06 23:32 | 27.98927 | -82.03326 | 148 ft | 1 kts | 88° |
| 2026-05-06 23:33 | 27.98928 | -82.03290 | 148 ft | 12 kts | 89° |
| 2026-05-06 23:33 | 27.98925 | -82.02908 | 147 ft | 86 kts | 89° |
| 2026-05-06 23:33 | 27.98923 | -82.01964 | 148 ft | 151 kts | 94° |
| 2026-05-06 23:33 | 27.98841 | -82.00640 | 428 ft | 183 kts | 91° |
| 2026-05-06 23:34 | 27.98906 | -81.99101 | 954 ft | 206 kts | 76° |
| 2026-05-06 23:34 | 27.99714 | -81.97793 | 1732 ft | 208 kts | 30° |
| 2026-05-06 23:34 | 28.01155 | -81.97426 | 2197 ft | 227 kts | 351° |
| 2026-05-06 23:34 | 28.02584 | -81.98260 | 2533 ft | 242 kts | 311° |
| 2026-05-06 23:35 | 28.03619 | -81.99799 | 3110 ft | 250 kts | 304° |
| 2026-05-06 23:35 | 28.04686 | -82.01452 | 3471 ft | 271 kts | 307° |
| 2026-05-06 23:35 | 28.05936 | -82.03102 | 4169 ft | 279 kts | 313° |
| 2026-05-06 23:35 | 28.07320 | -82.04637 | 5196 ft | 278 kts | 318° |
| 2026-05-06 23:36 | 28.08794 | -82.06050 | 6127 ft | 282 kts | 321° |
| 2026-05-06 23:36 | 28.10356 | -82.07378 | 7023 ft | 285 kts | 324° |
| 2026-05-06 23:36 | 28.11987 | -82.08655 | 7928 ft | 287 kts | 326° |
| 2026-05-06 23:36 | 28.13681 | -82.09895 | 8735 ft | 291 kts | 328° |
| 2026-05-06 23:37 | 28.15408 | -82.11116 | 9538 ft | 295 kts | 329° |
| 2026-05-06 23:37 | 28.17168 | -82.12325 | 10344 ft | 299 kts | 329° |
| 2026-05-06 23:37 | 28.19012 | -82.13574 | 10723 ft | 320 kts | 330° |
| 2026-05-06 23:37 | 28.20989 | -82.14878 | 10902 ft | 338 kts | 330° |
| 2026-05-06 23:38 | 28.23083 | -82.16247 | 11049 ft | 358 kts | 330° |
| 2026-05-06 23:38 | 28.25287 | -82.17687 | 11291 ft | 372 kts | 331° |
| 2026-05-06 23:38 | 28.27551 | -82.19071 | 11794 ft | 377 kts | 331° |
| 2026-05-06 23:38 | 28.29872 | -82.20587 | 12338 ft | 381 kts | 330° |
| 2026-05-06 23:39 | 28.32173 | -82.22096 | 12987 ft | 382 kts | 330° |
| 2026-05-06 23:39 | 28.34473 | -82.23602 | 13652 ft | 383 kts | 330° |
| 2026-05-06 23:39 | 28.36757 | -82.25092 | 14263 ft | 384 kts | 330° |
| 2026-05-06 23:39 | 28.39061 | -82.26589 | 14834 ft | 386 kts | 330° |
| 2026-05-06 23:40 | 28.41408 | -82.28111 | 15382 ft | 388 kts | 330° |
| 2026-05-06 23:40 | 28.43759 | -82.29634 | 15941 ft | 390 kts | 329° |
| 2026-05-06 23:40 | 28.46090 | -82.31145 | 16472 ft | 392 kts | 329° |
| 2026-05-06 23:40 | 28.47691 | -82.32183 | 16831 ft | 393 kts | 329° |
| 2026-05-06 23:41 | 28.50847 | -82.34230 | 17498 ft | 395 kts | 329° |
| 2026-05-06 23:41 | 28.52466 | -82.35281 | 17818 ft | 397 kts | 329° |
| 2026-05-06 23:41 | 28.55665 | -82.37359 | 18378 ft | 401 kts | 329° |
| 2026-05-06 23:41 | 28.58094 | -82.38938 | 18872 ft | 402 kts | 329° |
| 2026-05-06 23:42 | 28.60521 | -82.40515 | 19346 ft | 403 kts | 329° |
| 2026-05-06 23:42 | 28.62175 | -82.41590 | 19614 ft | 406 kts | 328° |
| 2026-05-06 23:42 | 28.64636 | -82.43191 | 20018 ft | 408 kts | 328° |
| 2026-05-06 23:42 | 28.67898 | -82.45314 | 20599 ft | 409 kts | 328° |
| 2026-05-06 23:43 | 28.69572 | -82.46404 | 20856 ft | 411 kts | 328° |
| 2026-05-06 23:43 | 28.72065 | -82.48028 | 21209 ft | 414 kts | 328° |
| 2026-05-06 23:43 | 28.74660 | -82.49478 | 21582 ft | 418 kts | 335° |
| 2026-05-06 23:43 | 28.77451 | -82.50468 | 21943 ft | 422 kts | 342° |
| 2026-05-06 23:44 | 28.80309 | -82.51284 | 22262 ft | 425 kts | 342° |
| 2026-05-06 23:44 | 28.83156 | -82.52087 | 22561 ft | 427 kts | 342° |
| 2026-05-06 23:44 | 28.86047 | -82.52908 | 22877 ft | 429 kts | 342° |
| 2026-05-06 23:44 | 28.88950 | -82.53742 | 23203 ft | 431 kts | 342° |
| 2026-05-06 23:45 | 28.91857 | -82.54587 | 23502 ft | 433 kts | 342° |
| 2026-05-06 23:45 | 28.94783 | -82.55442 | 23788 ft | 434 kts | 342° |
| 2026-05-06 23:45 | 28.97714 | -82.56303 | 24065 ft | 436 kts | 341° |
| 2026-05-06 23:45 | 29.00658 | -82.57169 | 24366 ft | 437 kts | 341° |
| 2026-05-06 23:46 | 29.03608 | -82.58038 | 24656 ft | 438 kts | 341° |
| 2026-05-06 23:46 | 29.06565 | -82.58910 | 24931 ft | 440 kts | 341° |
| 2026-05-06 23:46 | 29.09527 | -82.59784 | 25196 ft | 441 kts | 341° |
| 2026-05-06 23:46 | 29.12505 | -82.60662 | 25433 ft | 442 kts | 341° |
| 2026-05-06 23:47 | 29.15488 | -82.61541 | 25662 ft | 444 kts | 341° |
| 2026-05-06 23:47 | 29.18479 | -82.62423 | 25898 ft | 445 kts | 341° |
| 2026-05-06 23:47 | 29.21487 | -82.63312 | 26151 ft | 446 kts | 341° |
| 2026-05-06 23:47 | 29.24492 | -82.64201 | 26383 ft | 447 kts | 341° |
| 2026-05-06 23:48 | 29.27509 | -82.65093 | 26619 ft | 448 kts | 341° |
| 2026-05-06 23:48 | 29.30537 | -82.65989 | 26836 ft | 449 kts | 341° |
| 2026-05-06 23:48 | 29.33572 | -82.66889 | 27042 ft | 451 kts | 340° |
| 2026-05-06 23:48 | 29.36614 | -82.67790 | 27263 ft | 452 kts | 340° |
| 2026-05-06 23:49 | 29.39660 | -82.68686 | 27486 ft | 453 kts | 341° |
| 2026-05-06 23:49 | 29.42785 | -82.69321 | 27665 ft | 460 kts | 349° |
| 2026-05-06 23:49 | 29.46010 | -82.69427 | 27865 ft | 466 kts | 355° |
| 2026-05-06 23:49 | 29.49249 | -82.69374 | 28160 ft | 465 kts | 355° |
| 2026-05-06 23:50 | 29.52476 | -82.69315 | 28494 ft | 463 kts | 354° |
| 2026-05-06 23:50 | 29.58886 | -82.69224 | 29108 ft | 460 kts | 354° |
| 2026-05-06 23:50 | 29.62092 | -82.69194 | 29399 ft | 459 kts | 354° |
| 2026-05-06 23:51 | 29.65282 | -82.69170 | 29711 ft | 458 kts | 353° |
| 2026-05-06 23:51 | 29.68459 | -82.69150 | 30040 ft | 456 kts | 353° |
| 2026-05-06 23:51 | 29.71635 | -82.69132 | 30360 ft | 455 kts | 353° |
| 2026-05-06 23:51 | 29.74794 | -82.69114 | 30664 ft | 454 kts | 353° |
| 2026-05-06 23:52 | 29.77954 | -82.69097 | 30982 ft | 454 kts | 353° |
| 2026-05-06 23:52 | 29.81106 | -82.69079 | 31324 ft | 452 kts | 353° |
| 2026-05-06 23:52 | 29.84240 | -82.69058 | 31727 ft | 449 kts | 353° |
| 2026-05-06 23:52 | 29.87362 | -82.69037 | 32071 ft | 448 kts | 353° |
| 2026-05-06 23:53 | 29.90477 | -82.69017 | 32345 ft | 448 kts | 353° |
| 2026-05-06 23:53 | 29.93595 | -82.68998 | 32652 ft | 447 kts | 353° |
| 2026-05-06 23:53 | 29.96700 | -82.68979 | 32964 ft | 446 kts | 353° |
| 2026-05-06 23:53 | 29.99798 | -82.68959 | 33319 ft | 444 kts | 353° |
| 2026-05-06 23:54 | 30.02840 | -82.68939 | 33681 ft | 442 kts | 352° |
| 2026-05-06 23:54 | 30.05944 | -82.68918 | 33994 ft | 440 kts | 352° |
| 2026-05-06 23:54 | 30.09005 | -82.68900 | 34266 ft | 440 kts | 352° |
| 2026-05-06 23:54 | 30.12065 | -82.68882 | 34521 ft | 440 kts | 352° |
| 2026-05-06 23:55 | 30.15086 | -82.68864 | 34767 ft | 440 kts | 352° |
| 2026-05-06 23:55 | 30.18142 | -82.68845 | 35016 ft | 440 kts | 352° |
| 2026-05-06 23:55 | 30.21201 | -82.68826 | 35276 ft | 439 kts | 352° |
| 2026-05-06 23:55 | 30.24256 | -82.68807 | 35489 ft | 439 kts | 352° |
| 2026-05-06 23:56 | 30.27315 | -82.68788 | 35710 ft | 440 kts | 352° |
| 2026-05-06 23:56 | 30.30374 | -82.68770 | 35911 ft | 440 kts | 352° |
| 2026-05-06 23:56 | 30.33434 | -82.68751 | 36102 ft | 441 kts | 352° |
| 2026-05-06 23:56 | 30.36499 | -82.68732 | 36342 ft | 440 kts | 352° |
| 2026-05-06 23:57 | 30.39558 | -82.68712 | 36561 ft | 439 kts | 351° |
| 2026-05-06 23:57 | 30.42617 | -82.68692 | 36748 ft | 440 kts | 352° |
| 2026-05-06 23:57 | 30.45666 | -82.68671 | 37040 ft | 437 kts | 351° |
| 2026-05-06 23:57 | 30.48719 | -82.68653 | 37014 ft | 439 kts | 351° |
| 2026-05-06 23:58 | 30.54849 | -82.67951 | 37051 ft | 445 kts | 1° |
| 2026-05-06 23:58 | 30.60910 | -82.66582 | 37038 ft | 442 kts | 1° |
| 2026-05-06 23:59 | 30.66933 | -82.65235 | 37032 ft | 440 kts | 1° |
| 2026-05-06 23:59 | 30.72945 | -82.63937 | 37037 ft | 439 kts | 1° |
| 2026-05-07 00:00 | 30.78951 | -82.62656 | 37033 ft | 439 kts | 1° |
| 2026-05-07 00:00 | 30.84964 | -82.61373 | 37041 ft | 440 kts | 0° |
| 2026-05-07 00:01 | 30.90957 | -82.60090 | 37037 ft | 442 kts | 1° |
| 2026-05-07 00:01 | 30.97020 | -82.58789 | 37038 ft | 444 kts | 0° |
| 2026-05-07 00:02 | 31.03113 | -82.57480 | 37029 ft | 446 kts | 1° |
| 2026-05-07 00:02 | 31.09209 | -82.55877 | 37021 ft | 459 kts | 9° |
| 2026-05-07 00:03 | 31.12174 | -82.54358 | 37032 ft | 470 kts | 17° |
| 2026-05-07 00:03 | 31.15083 | -82.52590 | 37033 ft | 472 kts | 18° |
| 2026-05-07 00:03 | 31.20890 | -82.48963 | 37022 ft | 473 kts | 18° |
| 2026-05-07 00:04 | 31.26706 | -82.45363 | 37017 ft | 473 kts | 18° |
| 2026-05-07 00:04 | 31.32540 | -82.41797 | 37020 ft | 472 kts | 18° |
| 2026-05-07 00:05 | 31.38359 | -82.38252 | 37016 ft | 471 kts | 18° |
| 2026-05-07 00:05 | 31.44169 | -82.34711 | 37017 ft | 471 kts | 17° |
| 2026-05-07 00:06 | 31.49978 | -82.31163 | 37020 ft | 470 kts | 17° |
| 2026-05-07 00:06 | 31.55775 | -82.27616 | 37020 ft | 470 kts | 17° |
| 2026-05-07 00:07 | 31.61533 | -82.24089 | 37017 ft | 470 kts | 17° |
| 2026-05-07 00:07 | 31.67319 | -82.20540 | 37020 ft | 469 kts | 17° |
| 2026-05-07 00:08 | 31.73103 | -82.16984 | 37017 ft | 469 kts | 17° |
| 2026-05-07 00:08 | 31.78883 | -82.13425 | 37019 ft | 469 kts | 17° |
| 2026-05-07 00:09 | 31.84662 | -82.09865 | 37020 ft | 469 kts | 17° |
| 2026-05-07 00:09 | 31.90437 | -82.06301 | 37019 ft | 469 kts | 17° |
| 2026-05-07 00:10 | 31.96228 | -82.02724 | 37002 ft | 471 kts | 18° |
| 2026-05-07 00:10 | 32.02037 | -81.99126 | 37019 ft | 473 kts | 18° |
| 2026-05-07 00:11 | 32.07878 | -81.95506 | 37013 ft | 476 kts | 18° |
| 2026-05-07 00:11 | 32.13740 | -81.91804 | 36999 ft | 484 kts | 22° |
| 2026-05-07 00:12 | 32.16508 | -81.89457 | 36994 ft | 497 kts | 32° |
| 2026-05-07 00:12 | 32.19096 | -81.86711 | 37009 ft | 501 kts | 34° |
| 2026-05-07 00:12 | 32.24181 | -81.81055 | 37000 ft | 502 kts | 35° |
| 2026-05-07 00:13 | 32.29276 | -81.75420 | 36998 ft | 501 kts | 34° |
| 2026-05-07 00:13 | 32.34404 | -81.69835 | 36992 ft | 500 kts | 34° |
| 2026-05-07 00:14 | 32.39497 | -81.64312 | 36988 ft | 499 kts | 34° |
| 2026-05-07 00:14 | 32.44609 | -81.58757 | 36990 ft | 498 kts | 34° |
| 2026-05-07 00:15 | 32.49705 | -81.53204 | 36992 ft | 497 kts | 33° |
| 2026-05-07 00:15 | 32.54782 | -81.47658 | 36998 ft | 496 kts | 33° |
| 2026-05-07 00:16 | 32.59846 | -81.42126 | 36999 ft | 495 kts | 33° |
| 2026-05-07 00:16 | 32.64903 | -81.36593 | 37007 ft | 494 kts | 33° |
| 2026-05-07 00:17 | 32.69958 | -81.31050 | 37000 ft | 495 kts | 33° |
| 2026-05-07 00:17 | 32.75015 | -81.25495 | 37004 ft | 495 kts | 33° |
| 2026-05-07 00:18 | 32.80077 | -81.19925 | 37001 ft | 496 kts | 33° |
| 2026-05-07 00:18 | 32.85145 | -81.14340 | 36999 ft | 497 kts | 33° |
| 2026-05-07 00:19 | 32.90224 | -81.08735 | 36989 ft | 498 kts | 33° |
| 2026-05-07 00:19 | 32.95307 | -81.03113 | 36992 ft | 499 kts | 33° |
| 2026-05-07 00:20 | 33.00389 | -80.97480 | 36990 ft | 499 kts | 33° |
| 2026-05-07 00:20 | 33.05469 | -80.91843 | 37002 ft | 499 kts | 33° |
| 2026-05-07 00:21 | 33.10552 | -80.86203 | 37005 ft | 499 kts | 33° |
| 2026-05-07 00:21 | 33.15602 | -80.80583 | 36997 ft | 500 kts | 33° |
| 2026-05-07 00:22 | 33.20684 | -80.74913 | 37004 ft | 500 kts | 33° |
| 2026-05-07 00:22 | 33.25766 | -80.69236 | 36997 ft | 500 kts | 33° |
| 2026-05-07 00:23 | 33.30838 | -80.63559 | 37000 ft | 500 kts | 33° |
| 2026-05-07 00:23 | 33.35909 | -80.57873 | 36988 ft | 499 kts | 33° |
| 2026-05-07 00:24 | 33.40969 | -80.52194 | 37000 ft | 498 kts | 33° |
| 2026-05-07 00:24 | 33.46003 | -80.46470 | 36989 ft | 503 kts | 38° |
| 2026-05-07 00:25 | 33.50114 | -80.39508 | 36999 ft | 522 kts | 54° |
| 2026-05-07 00:25 | 33.52928 | -80.33035 | 36991 ft | 524 kts | 56° |
| 2026-05-07 00:26 | 33.56822 | -80.24036 | 36996 ft | 522 kts | 55° |
| 2026-05-07 00:26 | 33.60245 | -80.16362 | 37006 ft | 522 kts | 54° |
| 2026-05-07 00:27 | 33.63675 | -80.08688 | 36994 ft | 522 kts | 54° |
| 2026-05-07 00:27 | 33.67089 | -80.00997 | 37011 ft | 521 kts | 55° |
| 2026-05-07 00:28 | 33.69932 | -79.94597 | 36997 ft | 524 kts | 54° |
| 2026-05-07 00:28 | 33.73938 | -79.85565 | 36987 ft | 525 kts | 54° |
| 2026-05-07 00:29 | 33.77357 | -79.77818 | 36988 ft | 524 kts | 55° |
| 2026-05-07 00:30 | 33.83583 | -79.63623 | 36992 ft | 523 kts | 54° |
| 2026-05-07 00:30 | 33.86982 | -79.55895 | 36991 ft | 522 kts | 55° |
| 2026-05-07 00:31 | 33.90371 | -79.48166 | 36986 ft | 522 kts | 55° |
| 2026-05-07 00:31 | 33.93736 | -79.40466 | 36986 ft | 520 kts | 54° |
| 2026-05-07 00:32 | 33.97090 | -79.32768 | 36988 ft | 518 kts | 54° |
| 2026-05-07 00:32 | 34.00432 | -79.25095 | 37007 ft | 517 kts | 55° |
| 2026-05-07 00:33 | 34.03792 | -79.17428 | 37001 ft | 516 kts | 52° |
| 2026-05-07 00:33 | 34.07465 | -79.10034 | 37010 ft | 514 kts | 50° |
| 2026-05-07 00:34 | 34.11240 | -79.02725 | 37000 ft | 516 kts | 50° |
| 2026-05-07 00:34 | 34.14985 | -78.95319 | 37002 ft | 518 kts | 50° |
| 2026-05-07 00:35 | 34.18713 | -78.87865 | 37010 ft | 519 kts | 50° |
| 2026-05-07 00:35 | 34.22433 | -78.80382 | 37011 ft | 520 kts | 51° |
| 2026-05-07 00:36 | 34.26140 | -78.72890 | 37007 ft | 519 kts | 51° |
| 2026-05-07 00:36 | 34.29852 | -78.65383 | 37014 ft | 519 kts | 51° |
| 2026-05-07 00:37 | 34.33960 | -78.58453 | 37015 ft | 495 kts | 36° |
| 2026-05-07 00:37 | 34.36467 | -78.55704 | 37005 ft | 480 kts | 26° |
| 2026-05-07 00:37 | 34.39128 | -78.53252 | 37009 ft | 479 kts | 26° |
| 2026-05-07 00:38 | 34.44435 | -78.48348 | 36998 ft | 481 kts | 26° |
| 2026-05-07 00:38 | 34.49749 | -78.43380 | 37001 ft | 483 kts | 27° |
| 2026-05-07 00:39 | 34.55010 | -78.38388 | 36985 ft | 486 kts | 27° |
| 2026-05-07 00:39 | 34.60376 | -78.33285 | 36989 ft | 485 kts | 27° |
| 2026-05-07 00:40 | 34.65671 | -78.28239 | 36993 ft | 485 kts | 27° |
| 2026-05-07 00:40 | 34.70987 | -78.23171 | 36993 ft | 486 kts | 27° |
| 2026-05-07 00:41 | 34.76264 | -78.18121 | 36988 ft | 487 kts | 27° |
| 2026-05-07 00:41 | 34.81583 | -78.13032 | 36410 ft | 484 kts | 25° |
| 2026-05-07 00:42 | 34.84380 | -78.10513 | 35564 ft | 504 kts | 27° |
| 2026-05-07 00:42 | 34.87123 | -78.07894 | 35182 ft | 500 kts | 29° |
| 2026-05-07 00:42 | 34.89827 | -78.05260 | 35041 ft | 495 kts | 29° |
| 2026-05-07 00:42 | 34.92518 | -78.02637 | 35165 ft | 496 kts | 29° |
| 2026-05-07 00:43 | 34.95224 | -78.00018 | 35295 ft | 499 kts | 29° |
| 2026-05-07 00:43 | 34.97952 | -77.97391 | 35475 ft | 500 kts | 28° |
| 2026-05-07 00:43 | 35.00673 | -77.94773 | 35965 ft | 493 kts | 28° |
| 2026-05-07 00:43 | 35.03362 | -77.92187 | 36324 ft | 491 kts | 27° |
| 2026-05-07 00:44 | 35.06046 | -77.89614 | 36460 ft | 493 kts | 27° |
| 2026-05-07 00:44 | 35.08752 | -77.87025 | 36547 ft | 496 kts | 27° |
| 2026-05-07 00:44 | 35.11469 | -77.84422 | 36762 ft | 496 kts | 27° |
| 2026-05-07 00:44 | 35.14176 | -77.81820 | 37015 ft | 494 kts | 27° |
| 2026-05-07 00:45 | 35.19568 | -77.76631 | 36981 ft | 491 kts | 27° |
| 2026-05-07 00:45 | 35.24876 | -77.71499 | 36964 ft | 483 kts | 26° |
| 2026-05-07 00:46 | 35.30159 | -77.66401 | 36985 ft | 484 kts | 26° |
| 2026-05-07 00:46 | 35.35451 | -77.61289 | 36975 ft | 485 kts | 26° |
| 2026-05-07 00:47 | 35.40753 | -77.56151 | 36974 ft | 486 kts | 26° |
| 2026-05-07 00:47 | 35.48902 | -77.48233 | 36975 ft | 488 kts | 26° |
| 2026-05-07 00:48 | 35.59468 | -77.37936 | 36955 ft | 489 kts | 26° |